createdAt,value
2019-03-08T00:00:39.147Z,0.00
2019-03-08T00:01:39.125Z,0.00
2019-03-08T00:02:39.107Z,0.00
2019-03-08T00:03:39.094Z,0.00
2019-03-08T00:04:39.083Z,0.00
2019-03-08T00:05:39.100Z,0.00
2019-03-08T00:06:39.061Z,0.00
2019-03-08T00:07:39.050Z,0.00
2019-03-08T00:08:39.041Z,0.00
2019-03-08T00:09:39.032Z,0.00
2019-03-08T00:10:39.050Z,0.00
2019-03-08T00:11:39.011Z,0.00
2019-03-08T00:12:39.003Z,0.00
2019-03-08T00:13:38.988Z,0.00
2019-03-08T00:14:38.971Z,0.00
2019-03-08T00:15:38.987Z,0.00
2019-03-08T00:16:38.951Z,0.00
2019-03-08T00:17:38.942Z,0.00
2019-03-08T00:18:38.932Z,0.00
2019-03-08T00:19:38.923Z,0.00
2019-03-08T00:20:38.937Z,0.00
2019-03-08T00:21:38.895Z,0.00
2019-03-08T00:22:38.898Z,0.00
2019-03-08T00:23:38.881Z,0.00
2019-03-08T00:24:38.865Z,0.00
2019-03-08T00:25:38.879Z,0.00
2019-03-08T00:26:38.840Z,0.00
2019-03-08T00:27:38.832Z,0.00
2019-03-08T00:28:38.826Z,0.00
2019-03-08T00:29:38.813Z,0.00
2019-03-08T00:30:38.827Z,0.00
2019-03-08T00:31:38.791Z,0.00
2019-03-08T00:32:38.786Z,0.00
2019-03-08T00:33:38.766Z,0.00
2019-03-08T00:34:38.758Z,0.00
2019-03-08T00:35:38.771Z,0.00
2019-03-08T00:36:38.740Z,0.00
2019-03-08T00:37:38.724Z,0.00
2019-03-08T00:38:38.717Z,0.00
2019-03-08T00:39:38.700Z,0.00
2019-03-08T00:40:38.722Z,0.00
2019-03-08T00:41:38.684Z,0.00
2019-03-08T00:42:38.678Z,0.00
2019-03-08T00:43:38.663Z,0.00
2019-03-08T00:44:38.647Z,0.00
2019-03-08T00:45:38.659Z,0.00
2019-03-08T00:46:38.632Z,0.00
2019-03-08T00:47:38.618Z,0.00
2019-03-08T00:48:38.604Z,0.00
2019-03-08T00:49:38.593Z,0.00
2019-03-08T00:50:38.607Z,0.00
2019-03-08T00:51:38.575Z,0.00
2019-03-08T00:52:38.576Z,0.00
2019-03-08T00:53:38.559Z,0.00
2019-03-08T00:54:38.539Z,0.00
2019-03-08T00:55:38.556Z,0.00
2019-03-08T00:56:39.771Z,0.00
2019-03-08T00:57:38.511Z,0.00
2019-03-08T00:58:38.502Z,0.00
2019-03-08T00:59:38.487Z,0.00
2019-03-08T01:00:38.506Z,0.00
2019-03-08T01:01:38.464Z,0.00
2019-03-08T01:02:38.455Z,0.00
2019-03-08T01:03:38.452Z,0.00
2019-03-08T01:04:38.437Z,0.00
2019-03-08T01:05:38.457Z,0.00
2019-03-08T01:06:38.412Z,0.00
2019-03-08T01:07:38.404Z,0.00
2019-03-08T01:08:38.387Z,0.00
2019-03-08T01:09:38.392Z,0.00
2019-03-08T01:10:38.393Z,0.00
2019-03-08T01:11:38.370Z,0.00
2019-03-08T01:12:38.349Z,0.00
2019-03-08T01:13:38.338Z,0.00
2019-03-08T01:14:38.326Z,0.00
2019-03-08T01:15:38.338Z,0.00
2019-03-08T01:16:38.356Z,0.00
2019-03-08T01:17:38.294Z,0.00
2019-03-08T01:18:38.287Z,0.00
2019-03-08T01:19:38.273Z,0.00
2019-03-08T01:20:38.285Z,0.00
2019-03-08T01:21:38.249Z,0.00
2019-03-08T01:22:38.239Z,0.00
2019-03-08T01:23:38.228Z,0.00
2019-03-08T01:24:38.215Z,0.00
2019-03-08T01:25:38.251Z,0.00
2019-03-08T01:26:38.196Z,0.00
2019-03-08T01:27:38.186Z,0.00
2019-03-08T01:28:38.171Z,0.00
2019-03-08T01:29:38.166Z,0.00
2019-03-08T01:30:38.184Z,0.00
2019-03-08T01:31:38.139Z,0.00
2019-03-08T01:32:38.132Z,0.00
2019-03-08T01:33:38.122Z,0.00
2019-03-08T01:34:38.109Z,0.00
2019-03-08T01:35:38.121Z,0.00
2019-03-08T01:36:38.092Z,0.00
2019-03-08T01:37:38.081Z,0.00
2019-03-08T01:38:38.069Z,0.00
2019-03-08T01:39:38.056Z,0.00
2019-03-08T01:40:38.082Z,0.00
2019-03-08T01:41:38.045Z,0.00
2019-03-08T01:42:38.032Z,0.00
2019-03-08T01:43:38.012Z,0.00
2019-03-08T01:44:38.003Z,0.00
2019-03-08T01:45:37.992Z,0.00
2019-03-08T01:46:38.005Z,0.00
2019-03-08T01:47:37.968Z,0.00
2019-03-08T01:48:37.964Z,0.00
2019-03-08T01:49:37.949Z,0.00
2019-03-08T01:50:37.936Z,0.00
2019-03-08T01:51:37.957Z,0.00
2019-03-08T01:52:37.916Z,0.00
2019-03-08T01:53:37.906Z,0.00
2019-03-08T01:54:37.896Z,0.00
2019-03-08T01:55:37.898Z,0.00
2019-03-08T01:56:37.917Z,0.00
2019-03-08T01:57:37.861Z,0.00
2019-03-08T01:58:37.853Z,0.00
2019-03-08T01:59:37.843Z,0.00
2019-03-08T02:00:37.829Z,0.00
2019-03-08T02:01:37.852Z,0.00
2019-03-08T02:02:37.812Z,0.00
2019-03-08T02:03:37.795Z,0.00
2019-03-08T02:04:37.787Z,0.00
2019-03-08T02:05:37.776Z,0.00
2019-03-08T02:06:37.801Z,0.00
2019-03-08T02:07:37.754Z,0.00
2019-03-08T02:08:37.743Z,0.00
2019-03-08T02:09:37.733Z,0.00
2019-03-08T02:10:37.719Z,0.00
2019-03-08T02:11:37.741Z,0.00
2019-03-08T02:12:37.699Z,0.00
2019-03-08T02:13:37.687Z,0.00
2019-03-08T02:14:37.681Z,0.00
2019-03-08T02:15:37.676Z,0.00
2019-03-08T02:16:37.679Z,0.00
2019-03-08T02:17:37.655Z,0.00
2019-03-08T02:18:37.645Z,0.00
2019-03-08T02:19:37.630Z,0.00
2019-03-08T02:20:37.642Z,0.00
2019-03-08T02:21:37.628Z,0.00
2019-03-08T02:22:37.594Z,0.00
2019-03-08T02:23:37.580Z,0.00
2019-03-08T02:24:37.574Z,0.00
2019-03-08T02:25:37.561Z,0.00
2019-03-08T02:26:37.575Z,0.00
2019-03-08T02:27:37.539Z,0.00
2019-03-08T02:28:37.530Z,0.00
2019-03-08T02:29:39.118Z,0.00
2019-03-08T02:30:37.522Z,0.00
2019-03-08T02:31:37.521Z,0.00
2019-03-08T02:32:37.483Z,0.00
2019-03-08T02:33:37.489Z,0.00
2019-03-08T02:34:37.464Z,0.00
2019-03-08T02:35:37.458Z,0.00
2019-03-08T02:36:37.467Z,0.00
2019-03-08T02:37:37.441Z,0.00
2019-03-08T02:38:37.424Z,0.00
2019-03-08T02:39:37.516Z,0.00
2019-03-08T02:40:37.409Z,0.00
2019-03-08T02:41:37.527Z,0.00
2019-03-08T02:42:37.457Z,0.00
2019-03-08T02:43:37.388Z,0.00
2019-03-08T02:44:37.359Z,0.00
2019-03-08T02:45:37.349Z,0.00
2019-03-08T02:46:37.355Z,0.00
2019-03-08T02:47:37.323Z,0.00
2019-03-08T02:48:37.312Z,0.00
2019-03-08T02:49:37.302Z,0.00
2019-03-08T02:50:37.291Z,0.00
2019-03-08T02:51:37.305Z,0.00
2019-03-08T02:52:37.272Z,0.00
2019-03-08T02:53:37.260Z,0.00
2019-03-08T02:54:37.251Z,0.00
2019-03-08T02:55:37.241Z,0.00
2019-03-08T02:56:37.250Z,0.00
2019-03-08T02:57:37.216Z,0.00
2019-03-08T02:58:37.203Z,0.00
2019-03-08T02:59:37.193Z,0.00
2019-03-08T03:00:37.192Z,0.00
2019-03-08T03:01:37.200Z,0.00
2019-03-08T03:02:37.160Z,0.00
2019-03-08T03:03:37.151Z,0.00
2019-03-08T03:04:37.139Z,0.00
2019-03-08T03:05:37.120Z,0.00
2019-03-08T03:06:37.155Z,0.00
2019-03-08T03:07:37.114Z,0.00
2019-03-08T03:08:37.100Z,0.00
2019-03-08T03:09:37.086Z,0.00
2019-03-08T03:10:37.077Z,0.00
2019-03-08T03:11:37.094Z,0.00
2019-03-08T03:12:37.057Z,0.00
2019-03-08T03:13:37.043Z,0.00
2019-03-08T03:14:37.033Z,0.00
2019-03-08T03:15:37.028Z,0.00
2019-03-08T03:16:37.036Z,0.00
2019-03-08T03:17:36.999Z,0.00
2019-03-08T03:18:36.992Z,0.00
2019-03-08T03:19:36.988Z,0.00
2019-03-08T03:20:36.966Z,0.00
2019-03-08T03:21:36.985Z,0.00
2019-03-08T03:22:36.956Z,0.00
2019-03-08T03:23:36.942Z,0.00
2019-03-08T03:24:36.933Z,0.00
2019-03-08T03:25:36.915Z,0.00
2019-03-08T03:26:36.931Z,0.00
2019-03-08T03:27:36.899Z,0.00
2019-03-08T03:28:36.884Z,0.00
2019-03-08T03:29:36.872Z,0.00
2019-03-08T03:30:36.861Z,0.00
2019-03-08T03:31:36.896Z,0.00
2019-03-08T03:32:36.844Z,0.00
2019-03-08T03:33:36.836Z,0.00
2019-03-08T03:34:36.830Z,0.00
2019-03-08T03:35:36.811Z,0.00
2019-03-08T03:36:36.823Z,0.00
2019-03-08T03:37:36.787Z,0.00
2019-03-08T03:38:36.777Z,0.00
2019-03-08T03:39:36.768Z,0.00
2019-03-08T03:40:36.756Z,0.00
2019-03-08T03:41:36.768Z,0.00
2019-03-08T03:42:36.737Z,0.00
2019-03-08T03:43:36.723Z,0.00
2019-03-08T03:44:36.715Z,0.00
2019-03-08T03:45:36.701Z,0.00
2019-03-08T03:46:36.736Z,0.00
2019-03-08T03:47:36.682Z,0.00
2019-03-08T03:48:36.671Z,0.00
2019-03-08T03:49:36.657Z,0.00
2019-03-08T03:50:36.653Z,0.00
2019-03-08T03:51:36.635Z,0.00
2019-03-08T03:52:36.651Z,0.00
2019-03-08T03:53:36.613Z,0.00
2019-03-08T03:54:36.608Z,0.00
2019-03-08T03:55:36.595Z,0.00
2019-03-08T03:56:36.583Z,0.00
2019-03-08T03:57:36.596Z,0.00
2019-03-08T03:58:36.569Z,0.00
2019-03-08T03:59:36.552Z,0.00
2019-03-08T04:00:36.539Z,0.00
2019-03-08T04:01:36.535Z,0.00
2019-03-08T04:02:36.545Z,0.00
2019-03-08T04:03:36.507Z,0.00
2019-03-08T04:04:36.498Z,0.00
2019-03-08T04:05:36.489Z,0.00
2019-03-08T04:06:36.945Z,0.00
2019-03-08T04:07:36.498Z,0.00
2019-03-08T04:08:36.455Z,0.00
2019-03-08T04:09:36.443Z,0.00
2019-03-08T04:10:36.433Z,0.00
2019-03-08T04:11:36.420Z,0.00
2019-03-08T04:12:36.435Z,0.00
2019-03-08T04:13:36.406Z,0.00
2019-03-08T04:14:36.389Z,0.00
2019-03-08T04:15:36.381Z,0.00
2019-03-08T04:16:36.369Z,0.00
2019-03-08T04:17:36.384Z,0.00
2019-03-08T04:18:36.363Z,0.00
2019-03-08T04:19:36.336Z,0.00
2019-03-08T04:20:36.322Z,0.00
2019-03-08T04:21:36.319Z,0.00
2019-03-08T04:22:36.327Z,0.00
2019-03-08T04:23:36.294Z,0.00
2019-03-08T04:24:36.280Z,0.00
2019-03-08T04:25:36.274Z,0.00
2019-03-08T04:26:36.262Z,0.00
2019-03-08T04:27:36.279Z,0.00
2019-03-08T04:28:36.241Z,0.00
2019-03-08T04:29:36.233Z,0.00
2019-03-08T04:30:36.220Z,0.00
2019-03-08T04:31:36.213Z,0.00
2019-03-08T04:32:36.219Z,0.00
2019-03-08T04:33:36.187Z,0.00
2019-03-08T04:34:36.177Z,0.00
2019-03-08T04:35:36.164Z,0.00
2019-03-08T04:36:36.155Z,0.00
2019-03-08T04:37:36.166Z,0.00
2019-03-08T04:38:36.133Z,0.00
2019-03-08T04:39:36.120Z,0.00
2019-03-08T04:40:36.111Z,0.00
2019-03-08T04:41:36.099Z,0.00
2019-03-08T04:42:36.122Z,0.00
2019-03-08T04:43:36.095Z,0.00
2019-03-08T04:44:36.071Z,0.00
2019-03-08T04:45:36.057Z,0.00
2019-03-08T04:46:36.043Z,0.00
2019-03-08T04:47:36.065Z,0.00
2019-03-08T04:48:36.025Z,0.00
2019-03-08T04:49:36.011Z,0.00
2019-03-08T04:50:36.009Z,0.00
2019-03-08T04:51:35.999Z,0.00
2019-03-08T04:52:36.013Z,0.00
2019-03-08T04:53:35.967Z,0.00
2019-03-08T04:54:35.960Z,0.00
2019-03-08T04:55:35.947Z,0.00
2019-03-08T04:56:35.936Z,0.00
2019-03-08T04:57:35.955Z,0.00
2019-03-08T04:58:35.915Z,0.00
2019-03-08T04:59:35.905Z,0.00
2019-03-08T05:00:35.899Z,0.00
2019-03-08T05:01:35.885Z,0.00
2019-03-08T05:02:35.896Z,0.00
2019-03-08T05:03:35.863Z,0.00
2019-03-08T05:04:35.851Z,0.00
2019-03-08T05:05:35.850Z,0.00
2019-03-08T05:06:35.833Z,0.00
2019-03-08T05:07:35.852Z,0.00
2019-03-08T05:08:35.821Z,0.00
2019-03-08T05:09:35.795Z,0.00
2019-03-08T05:10:35.792Z,0.00
2019-03-08T05:11:35.775Z,0.00
2019-03-08T05:12:35.808Z,0.00
2019-03-08T05:13:35.756Z,0.00
2019-03-08T05:14:35.747Z,0.00
2019-03-08T05:15:35.733Z,0.00
2019-03-08T05:16:35.726Z,0.00
2019-03-08T05:17:35.736Z,0.00
2019-03-08T05:18:35.699Z,0.00
2019-03-08T05:19:35.693Z,0.00
2019-03-08T05:20:35.680Z,0.00
2019-03-08T05:21:35.675Z,0.00
2019-03-08T05:22:35.684Z,0.00
2019-03-08T05:23:35.650Z,0.00
2019-03-08T05:24:35.635Z,0.00
2019-03-08T05:25:35.628Z,0.00
2019-03-08T05:26:35.617Z,0.00
2019-03-08T05:27:35.626Z,0.00
2019-03-08T05:28:35.596Z,0.00
2019-03-08T05:29:35.588Z,0.00
2019-03-08T05:30:35.579Z,4.00
2019-03-08T05:31:35.561Z,4.00
2019-03-08T05:32:35.576Z,4.00
2019-03-08T05:33:35.539Z,4.00
2019-03-08T05:34:35.532Z,4.00
2019-03-08T05:35:35.527Z,4.00
2019-03-08T05:36:35.809Z,4.00
2019-03-08T05:37:35.521Z,4.00
2019-03-08T05:38:35.487Z,8.00
2019-03-08T05:39:35.478Z,8.00
2019-03-08T05:40:35.465Z,12.00
2019-03-08T05:41:35.457Z,12.00
2019-03-08T05:42:35.473Z,20.00
2019-03-08T05:43:35.431Z,20.00
2019-03-08T05:44:35.419Z,24.00
2019-03-08T05:45:35.495Z,32.00
2019-03-08T05:46:35.405Z,40.00
2019-03-08T05:47:35.411Z,48.00
2019-03-08T05:48:35.381Z,56.00
2019-03-08T05:49:35.397Z,56.00
2019-03-08T05:50:35.355Z,64.00
2019-03-08T05:51:35.423Z,64.00
2019-03-08T05:52:35.369Z,76.00
2019-03-08T05:53:35.618Z,116.00
2019-03-08T05:54:35.320Z,132.00
2019-03-08T05:55:35.307Z,144.00
2019-03-08T05:56:35.320Z,160.00
2019-03-08T05:57:35.308Z,176.00
2019-03-08T05:58:35.276Z,192.00
2019-03-08T05:59:35.271Z,244.00
2019-03-08T06:00:35.586Z,228.00
2019-03-08T06:01:35.242Z,236.00
2019-03-08T06:02:35.256Z,268.00
2019-03-08T06:03:35.217Z,292.00
2019-03-08T06:04:35.209Z,304.00
2019-03-08T06:05:35.196Z,328.00
2019-03-08T06:06:35.188Z,428.00
2019-03-08T06:07:35.199Z,356.00
2019-03-08T06:08:35.172Z,288.00
2019-03-08T06:09:35.155Z,368.00
2019-03-08T06:10:35.148Z,408.00
2019-03-08T06:11:35.143Z,460.00
2019-03-08T06:12:35.152Z,508.00
2019-03-08T06:13:35.111Z,624.00
2019-03-08T06:14:35.102Z,780.00
2019-03-08T06:15:35.101Z,684.00
2019-03-08T06:16:35.076Z,656.00
2019-03-08T06:17:35.092Z,704.00
2019-03-08T06:18:35.057Z,664.00
2019-03-08T06:19:35.053Z,660.00
2019-03-08T06:20:35.037Z,668.00
2019-03-08T06:21:35.030Z,744.00
2019-03-08T06:22:35.040Z,860.00
2019-03-08T06:23:35.006Z,988.00
2019-03-08T06:24:34.993Z,1024.00
2019-03-08T06:25:34.984Z,1152.00
2019-03-08T06:26:34.974Z,1148.00
2019-03-08T06:27:35.031Z,1252.00
2019-03-08T06:28:35.419Z,1148.00
2019-03-08T06:29:34.950Z,1060.00
2019-03-08T06:30:34.928Z,1140.00
2019-03-08T06:31:34.919Z,1100.00
2019-03-08T06:32:34.907Z,1116.00
2019-03-08T06:33:34.925Z,1088.00
2019-03-08T06:34:34.892Z,1072.00
2019-03-08T06:35:34.873Z,1028.00
2019-03-08T06:36:34.869Z,988.00
2019-03-08T06:37:34.855Z,1096.00
2019-03-08T06:38:34.871Z,1432.00
2019-03-08T06:39:34.835Z,1524.00
2019-03-08T06:40:34.856Z,1460.00
2019-03-08T06:41:34.971Z,1624.00
2019-03-08T06:42:34.802Z,1384.00
2019-03-08T06:43:34.814Z,1612.00
2019-03-08T06:44:34.780Z,1456.00
2019-03-08T06:45:34.768Z,1900.00
2019-03-08T06:46:34.819Z,1816.00
2019-03-08T06:47:34.743Z,2076.00
2019-03-08T06:48:34.761Z,2280.00
2019-03-08T06:49:34.724Z,2080.00
2019-03-08T06:50:34.712Z,2012.00
2019-03-08T06:51:34.709Z,1944.00
2019-03-08T06:52:34.692Z,2292.00
2019-03-08T06:53:34.705Z,2076.00
2019-03-08T06:54:34.671Z,2020.00
2019-03-08T06:55:34.660Z,2688.00
2019-03-08T06:56:34.688Z,2248.00
2019-03-08T06:57:34.635Z,1840.00
2019-03-08T06:58:34.655Z,2824.00
2019-03-08T06:59:34.615Z,3596.00
2019-03-08T07:00:34.615Z,3188.00
2019-03-08T07:01:34.595Z,3044.00
2019-03-08T07:02:34.590Z,2388.00
2019-03-08T07:03:34.595Z,1816.00
2019-03-08T07:04:34.566Z,1516.00
2019-03-08T07:05:34.597Z,1496.00
2019-03-08T07:06:34.542Z,1852.00
2019-03-08T07:07:34.530Z,2804.00
2019-03-08T07:08:34.543Z,2592.00
2019-03-08T07:09:34.514Z,2256.00
2019-03-08T07:10:34.502Z,2608.00
2019-03-08T07:11:34.493Z,2604.00
2019-03-08T07:12:34.478Z,2316.00
2019-03-08T07:13:34.495Z,2856.00
2019-03-08T07:14:34.457Z,2828.00
2019-03-08T07:15:34.447Z,2808.00
2019-03-08T07:16:34.437Z,2520.00
2019-03-08T07:17:34.425Z,2612.00
2019-03-08T07:18:34.451Z,3108.00
2019-03-08T07:19:40.678Z,4360.00
2019-03-08T07:20:35.401Z,4832.00
2019-03-08T07:21:34.380Z,4640.00
2019-03-08T07:22:34.378Z,4260.00
2019-03-08T07:23:34.366Z,5176.00
2019-03-08T07:24:34.372Z,4904.00
2019-03-08T07:25:34.338Z,4708.00
2019-03-08T07:26:34.327Z,5128.00
2019-03-08T07:27:34.316Z,5860.00
2019-03-08T07:28:34.303Z,6972.00
2019-03-08T07:29:34.315Z,7952.00
2019-03-08T07:30:34.286Z,7476.00
2019-03-08T07:31:34.274Z,7132.00
2019-03-08T07:32:34.265Z,7000.00
2019-03-08T07:33:34.255Z,5324.00
2019-03-08T07:34:34.361Z,5860.00
2019-03-08T07:35:34.230Z,7060.00
2019-03-08T07:36:34.214Z,7360.00
2019-03-08T07:37:34.207Z,8388.00
2019-03-08T07:38:34.196Z,9176.00
2019-03-08T07:39:34.217Z,8988.00
2019-03-08T07:40:34.178Z,9712.00
2019-03-08T07:41:34.174Z,9608.00
2019-03-08T07:42:34.154Z,9156.00
2019-03-08T07:43:34.143Z,8420.00
2019-03-08T07:44:34.157Z,7912.00
2019-03-08T07:45:34.126Z,7864.00
2019-03-08T07:46:34.108Z,7984.00
2019-03-08T07:47:34.100Z,7892.00
2019-03-08T07:48:34.090Z,7848.00
2019-03-08T07:49:34.098Z,7884.00
2019-03-08T07:50:34.066Z,8588.00
2019-03-08T07:51:34.054Z,9372.00
2019-03-08T07:52:34.045Z,10016.00
2019-03-08T07:53:34.033Z,9724.00
2019-03-08T07:54:34.047Z,9544.00
2019-03-08T07:55:34.016Z,10048.00
2019-03-08T07:56:34.001Z,10864.00
2019-03-08T07:57:33.987Z,12196.00
2019-03-08T07:58:33.978Z,13588.00
2019-03-08T07:59:33.991Z,15244.00
2019-03-08T08:00:33.955Z,15972.00
2019-03-08T08:01:33.943Z,16400.00
2019-03-08T08:02:33.939Z,15264.00
2019-03-08T08:03:33.924Z,13732.00
2019-03-08T08:04:33.940Z,13696.00
2019-03-08T08:05:33.905Z,11924.00
2019-03-08T08:06:33.897Z,9732.00
2019-03-08T08:07:33.882Z,8964.00
2019-03-08T08:08:33.867Z,7876.00
2019-03-08T08:09:33.885Z,7144.00
2019-03-08T08:10:33.856Z,7700.00
2019-03-08T08:11:33.840Z,9704.00
2019-03-08T08:12:33.824Z,10416.00
2019-03-08T08:13:33.821Z,11716.00
2019-03-08T08:14:39.538Z,12052.00
2019-03-08T08:15:34.794Z,11496.00
2019-03-08T08:16:33.790Z,13864.00
2019-03-08T08:17:33.776Z,14316.00
2019-03-08T08:18:33.761Z,15196.00
2019-03-08T08:19:33.776Z,18944.00
2019-03-08T08:20:33.742Z,22720.00
2019-03-08T08:21:33.730Z,21088.00
2019-03-08T08:22:33.726Z,16940.00
2019-03-08T08:23:34.830Z,16320.00
2019-03-08T08:24:33.734Z,15020.00
2019-03-08T08:25:36.699Z,15572.00
2019-03-08T08:26:33.676Z,17084.00
2019-03-08T08:27:33.669Z,19392.00
2019-03-08T08:28:33.662Z,21504.00
2019-03-08T08:29:35.216Z,19584.00
2019-03-08T08:30:33.631Z,19200.00
2019-03-08T08:31:33.624Z,19200.00
2019-03-08T08:32:33.608Z,18560.00
2019-03-08T08:33:33.599Z,19200.00
2019-03-08T08:34:33.635Z,18880.00
2019-03-08T08:35:33.580Z,19040.00
2019-03-08T08:36:33.571Z,17044.00
2019-03-08T08:37:33.562Z,17824.00
2019-03-08T08:38:33.546Z,17460.00
2019-03-08T08:39:33.538Z,19616.00
2019-03-08T08:40:33.555Z,19936.00
2019-03-08T08:41:33.515Z,20672.00
2019-03-08T08:42:33.511Z,20224.00
2019-03-08T08:43:33.500Z,17920.00
2019-03-08T08:44:33.482Z,17540.00
2019-03-08T08:45:33.530Z,15092.00
2019-03-08T08:46:33.482Z,14036.00
2019-03-08T08:47:33.451Z,14620.00
2019-03-08T08:48:33.445Z,13256.00
2019-03-08T08:49:33.444Z,11868.00
2019-03-08T08:50:33.451Z,15244.00
2019-03-08T08:51:33.411Z,19648.00
2019-03-08T08:52:33.404Z,19936.00
2019-03-08T08:53:33.392Z,15032.00
2019-03-08T08:54:33.375Z,10628.00
2019-03-08T08:55:33.393Z,10032.00
2019-03-08T08:56:33.364Z,12080.00
2019-03-08T08:57:33.351Z,11624.00
2019-03-08T08:58:33.339Z,14124.00
2019-03-08T08:59:33.325Z,12140.00
2019-03-08T09:00:33.344Z,14216.00
2019-03-08T09:01:33.307Z,14116.00
2019-03-08T09:02:33.297Z,20256.00
2019-03-08T09:03:33.279Z,28800.00
2019-03-08T09:04:33.273Z,23360.00
2019-03-08T09:05:33.289Z,23520.00
2019-03-08T09:06:33.251Z,36064.00
2019-03-08T09:07:33.240Z,51904.00
2019-03-08T09:08:33.231Z,27936.00
2019-03-08T09:09:33.215Z,25536.00
2019-03-08T09:10:33.236Z,26944.00
2019-03-08T09:11:33.195Z,28832.00
2019-03-08T09:12:33.185Z,32000.00
2019-03-08T09:13:33.173Z,25632.00
2019-03-08T09:14:33.162Z,51680.00
2019-03-08T09:15:33.176Z,36480.00
2019-03-08T09:16:33.141Z,30048.00
2019-03-08T09:17:33.131Z,25888.00
2019-03-08T09:18:33.119Z,48928.00
2019-03-08T09:19:33.102Z,29216.00
2019-03-08T09:20:33.121Z,15376.00
2019-03-08T09:21:33.093Z,16980.00
2019-03-08T09:22:33.075Z,14672.00
2019-03-08T09:23:33.064Z,11360.00
2019-03-08T09:24:33.054Z,12992.00
2019-03-08T09:25:33.069Z,15804.00
2019-03-08T09:26:33.193Z,15932.00
2019-03-08T09:27:33.028Z,17280.00
2019-03-08T09:28:33.014Z,12480.00
2019-03-08T09:29:41.087Z,10768.00
2019-03-08T09:30:34.017Z,11928.00
2019-03-08T09:31:33.009Z,11048.00
2019-03-08T09:32:32.966Z,9916.00
2019-03-08T09:33:32.957Z,12844.00
2019-03-08T09:34:32.948Z,18528.00
2019-03-08T09:35:32.955Z,16848.00
2019-03-08T09:36:32.921Z,22272.00
2019-03-08T09:37:32.918Z,23072.00
2019-03-08T09:38:32.903Z,23520.00
2019-03-08T09:39:32.891Z,28512.00
2019-03-08T09:40:32.906Z,32352.00
2019-03-08T09:41:32.867Z,28384.00
2019-03-08T09:42:32.860Z,22240.00
2019-03-08T09:43:32.857Z,19104.00
2019-03-08T09:44:32.831Z,16524.00
2019-03-08T09:45:32.873Z,14968.00
2019-03-08T09:46:32.820Z,13736.00
2019-03-08T09:47:32.805Z,11132.00
2019-03-08T09:48:32.794Z,9544.00
2019-03-08T09:49:32.780Z,8612.00
2019-03-08T09:50:32.797Z,8692.00
2019-03-08T09:51:32.758Z,9260.00
2019-03-08T09:52:32.758Z,10728.00
2019-03-08T09:53:32.735Z,11664.00
2019-03-08T09:54:32.729Z,12172.00
2019-03-08T09:55:32.742Z,13316.00
2019-03-08T09:56:32.704Z,16420.00
2019-03-08T09:57:32.699Z,22112.00
2019-03-08T09:58:32.683Z,26016.00
2019-03-08T09:59:32.674Z,31232.00
2019-03-08T10:00:32.668Z,28608.00
2019-03-08T10:01:32.684Z,22176.00
2019-03-08T10:02:32.642Z,17696.00
2019-03-08T10:03:32.647Z,19072.00
2019-03-08T10:04:32.626Z,22240.00
2019-03-08T10:05:32.611Z,24256.00
2019-03-08T10:06:32.631Z,26976.00
2019-03-08T10:07:32.598Z,23424.00
2019-03-08T10:08:32.577Z,16656.00
2019-03-08T10:09:32.571Z,11128.00
2019-03-08T10:10:32.555Z,10528.00
2019-03-08T10:11:32.578Z,15144.00
2019-03-08T10:12:32.538Z,20096.00
2019-03-08T10:13:32.535Z,19808.00
2019-03-08T10:14:32.512Z,19680.00
2019-03-08T10:15:32.520Z,23648.00
2019-03-08T10:16:32.521Z,28544.00
2019-03-08T10:17:32.486Z,37280.00
2019-03-08T10:18:32.472Z,34976.00
2019-03-08T10:19:32.472Z,33216.00
2019-03-08T10:20:32.458Z,32384.00
2019-03-08T10:21:32.468Z,33536.00
2019-03-08T10:22:32.427Z,31904.00
2019-03-08T10:23:32.455Z,30624.00
2019-03-08T10:24:32.409Z,28832.00
2019-03-08T10:25:32.400Z,28288.00
2019-03-08T10:26:32.407Z,27488.00
2019-03-08T10:27:38.202Z,28096.00
2019-03-08T10:28:33.367Z,58080.00
2019-03-08T10:29:32.352Z,50912.00
2019-03-08T10:30:32.341Z,70592.00
2019-03-08T10:31:32.353Z,64768.00
2019-03-08T10:32:37.354Z,62496.00
2019-03-08T10:33:33.311Z,61856.00
2019-03-08T10:34:32.298Z,62688.00
2019-03-08T10:35:32.283Z,62752.00
2019-03-08T10:36:32.304Z,60896.00
2019-03-08T10:37:32.265Z,57952.00
2019-03-08T10:38:32.259Z,53184.00
2019-03-08T10:39:32.246Z,50368.00
2019-03-08T10:40:32.236Z,49344.00
2019-03-08T10:41:32.250Z,48672.00
2019-03-08T10:42:32.216Z,48288.00
2019-03-08T10:43:32.205Z,45056.00
2019-03-08T10:44:32.219Z,41536.00
2019-03-08T10:45:32.180Z,36640.00
2019-03-08T10:46:32.196Z,31712.00
2019-03-08T10:47:32.157Z,29312.00
2019-03-08T10:48:32.151Z,29760.00
2019-03-08T10:49:32.138Z,32384.00
2019-03-08T10:50:32.124Z,37344.00
2019-03-08T10:51:32.143Z,36704.00
2019-03-08T10:52:32.111Z,18388.00
2019-03-08T10:53:32.093Z,16316.00
2019-03-08T10:54:32.080Z,25152.00
2019-03-08T10:55:32.071Z,19168.00
2019-03-08T10:56:32.088Z,37600.00
2019-03-08T10:57:32.051Z,46144.00
2019-03-08T10:58:32.049Z,49088.00
2019-03-08T10:59:32.026Z,50848.00
2019-03-08T11:00:32.021Z,23776.00
2019-03-08T11:01:32.028Z,46560.00
2019-03-08T11:02:31.991Z,32288.00
2019-03-08T11:03:31.980Z,25984.00
2019-03-08T11:04:31.972Z,58432.00
2019-03-08T11:05:31.956Z,28096.00
2019-03-08T11:06:31.974Z,27392.00
2019-03-08T11:07:31.937Z,13948.00
2019-03-08T11:08:31.923Z,14428.00
2019-03-08T11:09:31.917Z,14288.00
2019-03-08T11:10:31.909Z,41056.00
2019-03-08T11:11:31.921Z,20224.00
2019-03-08T11:12:31.892Z,19232.00
2019-03-08T11:13:31.873Z,17528.00
2019-03-08T11:14:31.919Z,21824.00
2019-03-08T11:15:31.849Z,80064.00
2019-03-08T11:16:31.876Z,28384.00
2019-03-08T11:17:31.831Z,25984.00
2019-03-08T11:18:31.820Z,78848.00
2019-03-08T11:19:31.809Z,36544.00
2019-03-08T11:20:31.797Z,33952.00
2019-03-08T11:21:31.828Z,79616.00
2019-03-08T11:22:31.777Z,88160.00
2019-03-08T11:23:31.761Z,38656.00
2019-03-08T11:24:31.752Z,36576.00
2019-03-08T11:25:35.056Z,34304.00
2019-03-08T11:26:31.756Z,22304.00
2019-03-08T11:27:31.722Z,75008.00
2019-03-08T11:28:31.709Z,23744.00
2019-03-08T11:29:31.701Z,25376.00
2019-03-08T11:30:31.691Z,71968.00
2019-03-08T11:31:31.702Z,69664.00
2019-03-08T11:32:31.664Z,70656.00
2019-03-08T11:33:31.660Z,69152.00
2019-03-08T11:34:31.646Z,67072.00
2019-03-08T11:35:31.633Z,61280.00
2019-03-08T11:36:31.649Z,45280.00
2019-03-08T11:37:31.621Z,43488.00
2019-03-08T11:38:31.608Z,40832.00
2019-03-08T11:39:31.588Z,55232.00
2019-03-08T11:40:31.580Z,66944.00
2019-03-08T11:41:31.569Z,63328.00
2019-03-08T11:42:31.586Z,54400.00
2019-03-08T11:43:31.551Z,65536.00
2019-03-08T11:44:31.535Z,69568.00
2019-03-08T11:45:31.528Z,33088.00
2019-03-08T11:46:31.513Z,33408.00
2019-03-08T11:47:31.537Z,32704.00
2019-03-08T11:48:31.494Z,33632.00
2019-03-08T11:49:31.478Z,28448.00
2019-03-08T11:50:31.468Z,25024.00
2019-03-08T11:51:31.456Z,28416.00
2019-03-08T11:52:31.471Z,79136.00
2019-03-08T11:53:31.438Z,65216.00
2019-03-08T11:54:40.347Z,78112.00
2019-03-08T11:55:32.420Z,24192.00
2019-03-08T11:56:31.404Z,26528.00
2019-03-08T11:57:31.420Z,73152.00
2019-03-08T11:58:31.394Z,69376.00
2019-03-08T11:59:31.368Z,66208.00
2019-03-08T12:00:31.355Z,20320.00
2019-03-08T12:01:31.351Z,64416.00
2019-03-08T12:02:37.822Z,17136.00
2019-03-08T12:03:32.329Z,12836.00
2019-03-08T12:04:31.313Z,26368.00
2019-03-08T12:05:31.308Z,11472.00
2019-03-08T12:06:31.299Z,12504.00
2019-03-08T12:07:31.308Z,63552.00
2019-03-08T12:08:31.271Z,62784.00
2019-03-08T12:09:31.260Z,62208.00
2019-03-08T12:10:31.258Z,63904.00
2019-03-08T12:11:31.240Z,62784.00
2019-03-08T12:12:31.261Z,60096.00
2019-03-08T12:13:32.294Z,58464.00
2019-03-08T12:14:31.210Z,59744.00
2019-03-08T12:15:31.200Z,58464.00
2019-03-08T12:16:31.185Z,61952.00
2019-03-08T12:17:31.195Z,65248.00
2019-03-08T12:18:31.167Z,66336.00
2019-03-08T12:19:31.149Z,66304.00
2019-03-08T12:20:31.141Z,66304.00
2019-03-08T12:21:31.134Z,66560.00
2019-03-08T12:22:31.144Z,67680.00
2019-03-08T12:23:31.109Z,68032.00
2019-03-08T12:24:31.118Z,41248.00
2019-03-08T12:25:31.084Z,16644.00
2019-03-08T12:26:31.099Z,17048.00
2019-03-08T12:27:31.091Z,18912.00
2019-03-08T12:28:31.054Z,19808.00
2019-03-08T12:29:31.046Z,21440.00
2019-03-08T12:30:31.032Z,23424.00